sensor_id;sensor_type;location;lat;lon;timestamp;P1;durP1;ratioP1;P2;durP2;ratioP2
54815;SDS011;40715;55.752;37.884;2022-07-23T00:00:29;0.00;;;0.00;;
54815;SDS011;40715;55.752;37.884;2022-07-23T00:03:03;0.00;;;0.00;;
54815;SDS011;40715;55.752;37.884;2022-07-23T00:05:30;0.00;;;0.00;;
54815;SDS011;40715;55.752;37.884;2022-07-23T00:07:57;0.00;;;0.00;;
54815;SDS011;40715;55.752;37.884;2022-07-23T00:10:24;0.00;;;0.00;;
54815;SDS011;40715;55.752;37.884;2022-07-23T00:12:51;0.00;;;0.00;;
54815;SDS011;40715;55.752;37.884;2022-07-23T00:15:18;0.00;;;0.00;;
54815;SDS011;40715;55.752;37.884;2022-07-23T00:17:45;0.00;;;0.00;;
54815;SDS011;40715;55.752;37.884;2022-07-23T00:20:12;0.00;;;0.00;;
54815;SDS011;40715;55.752;37.884;2022-07-23T00:22:50;0.00;;;0.00;;
54815;SDS011;40715;55.752;37.884;2022-07-23T00:25:19;0.00;;;0.00;;
54815;SDS011;40715;55.752;37.884;2022-07-23T00:27:54;0.00;;;0.00;;
54815;SDS011;40715;55.752;37.884;2022-07-23T00:30:31;0.00;;;0.00;;
54815;SDS011;40715;55.752;37.884;2022-07-23T00:33:00;0.00;;;0.00;;
54815;SDS011;40715;55.752;37.884;2022-07-23T00:35:31;0.00;;;0.00;;
54815;SDS011;40715;55.752;37.884;2022-07-23T00:38:00;0.00;;;0.00;;
54815;SDS011;40715;55.752;37.884;2022-07-23T00:40:28;0.00;;;0.00;;
54815;SDS011;40715;55.752;37.884;2022-07-23T00:42:56;0.00;;;0.00;;
54815;SDS011;40715;55.752;37.884;2022-07-23T00:45:23;0.10;;;0.00;;
54815;SDS011;40715;55.752;37.884;2022-07-23T00:47:50;0.00;;;0.00;;
54815;SDS011;40715;55.752;37.884;2022-07-23T00:50:17;0.00;;;0.00;;
54815;SDS011;40715;55.752;37.884;2022-07-23T00:52:45;0.00;;;0.00;;
54815;SDS011;40715;55.752;37.884;2022-07-23T00:55:13;0.00;;;0.00;;
54815;SDS011;40715;55.752;37.884;2022-07-23T00:57:41;0.00;;;0.00;;
54815;SDS011;40715;55.752;37.884;2022-07-23T01:00:10;0.00;;;0.00;;
54815;SDS011;40715;55.752;37.884;2022-07-23T01:02:40;0.00;;;0.00;;
54815;SDS011;40715;55.752;37.884;2022-07-23T01:05:08;0.00;;;0.00;;
54815;SDS011;40715;55.752;37.884;2022-07-23T01:07:36;0.00;;;0.00;;
54815;SDS011;40715;55.752;37.884;2022-07-23T01:10:04;0.00;;;0.00;;
54815;SDS011;40715;55.752;37.884;2022-07-23T01:12:51;0.00;;;0.00;;
54815;SDS011;40715;55.752;37.884;2022-07-23T01:15:18;0.00;;;0.00;;
54815;SDS011;40715;55.752;37.884;2022-07-23T01:17:45;0.00;;;0.00;;
54815;SDS011;40715;55.752;37.884;2022-07-23T01:20:12;0.00;;;0.00;;
54815;SDS011;40715;55.752;37.884;2022-07-23T01:22:39;0.00;;;0.00;;
54815;SDS011;40715;55.752;37.884;2022-07-23T01:25:06;0.00;;;0.00;;
54815;SDS011;40715;55.752;37.884;2022-07-23T01:27:33;0.00;;;0.00;;
54815;SDS011;40715;55.752;37.884;2022-07-23T01:30:00;0.00;;;0.00;;
54815;SDS011;40715;55.752;37.884;2022-07-23T01:32:30;0.00;;;0.00;;
54815;SDS011;40715;55.752;37.884;2022-07-23T01:34:57;0.00;;;0.00;;
54815;SDS011;40715;55.752;37.884;2022-07-23T01:37:24;0.00;;;0.00;;
54815;SDS011;40715;55.752;37.884;2022-07-23T01:39:51;0.00;;;0.00;;
54815;SDS011;40715;55.752;37.884;2022-07-23T01:42:17;0.00;;;0.00;;
54815;SDS011;40715;55.752;37.884;2022-07-23T01:44:45;0.00;;;0.00;;
54815;SDS011;40715;55.752;37.884;2022-07-23T01:47:11;0.00;;;0.00;;
54815;SDS011;40715;55.752;37.884;2022-07-23T01:49:39;0.00;;;0.00;;
54815;SDS011;40715;55.752;37.884;2022-07-23T01:52:06;0.00;;;0.00;;
54815;SDS011;40715;55.752;37.884;2022-07-23T01:54:37;0.00;;;0.00;;
54815;SDS011;40715;55.752;37.884;2022-07-23T01:57:06;0.00;;;0.00;;
54815;SDS011;40715;55.752;37.884;2022-07-23T01:59:33;0.00;;;0.00;;
54815;SDS011;40715;55.752;37.884;2022-07-23T02:02:00;0.00;;;0.00;;
54815;SDS011;40715;55.752;37.884;2022-07-23T02:04:30;0.00;;;0.00;;
54815;SDS011;40715;55.752;37.884;2022-07-23T02:06:57;0.00;;;0.00;;
54815;SDS011;40715;55.752;37.884;2022-07-23T02:09:24;0.00;;;0.00;;
54815;SDS011;40715;55.752;37.884;2022-07-23T02:11:51;0.00;;;0.00;;
54815;SDS011;40715;55.752;37.884;2022-07-23T02:14:18;0.00;;;0.00;;
54815;SDS011;40715;55.752;37.884;2022-07-23T02:16:45;0.00;;;0.00;;
54815;SDS011;40715;55.752;37.884;2022-07-23T02:19:12;0.00;;;0.00;;
54815;SDS011;40715;55.752;37.884;2022-07-23T02:21:39;0.00;;;0.00;;
54815;SDS011;40715;55.752;37.884;2022-07-23T02:24:06;0.00;;;0.00;;
54815;SDS011;40715;55.752;37.884;2022-07-23T02:26:33;0.00;;;0.00;;
54815;SDS011;40715;55.752;37.884;2022-07-23T02:29:02;0.00;;;0.00;;
54815;SDS011;40715;55.752;37.884;2022-07-23T02:31:30;0.00;;;0.00;;
54815;SDS011;40715;55.752;37.884;2022-07-23T02:33:57;0.00;;;0.00;;
54815;SDS011;40715;55.752;37.884;2022-07-23T02:36:24;0.00;;;0.00;;
54815;SDS011;40715;55.752;37.884;2022-07-23T02:38:51;0.00;;;0.00;;
54815;SDS011;40715;55.752;37.884;2022-07-23T02:41:18;0.00;;;0.00;;
54815;SDS011;40715;55.752;37.884;2022-07-23T02:43:45;0.00;;;0.00;;
54815;SDS011;40715;55.752;37.884;2022-07-23T02:46:12;0.00;;;0.00;;
54815;SDS011;40715;55.752;37.884;2022-07-23T02:48:39;0.00;;;0.00;;
54815;SDS011;40715;55.752;37.884;2022-07-23T02:51:06;0.00;;;0.00;;
54815;SDS011;40715;55.752;37.884;2022-07-23T02:53:35;0.00;;;0.00;;
54815;SDS011;40715;55.752;37.884;2022-07-23T02:56:03;0.00;;;0.00;;
54815;SDS011;40715;55.752;37.884;2022-07-23T02:58:30;0.00;;;0.00;;
54815;SDS011;40715;55.752;37.884;2022-07-23T03:01:00;0.00;;;0.00;;
54815;SDS011;40715;55.752;37.884;2022-07-23T03:03:28;0.00;;;0.00;;
54815;SDS011;40715;55.752;37.884;2022-07-23T03:05:55;0.00;;;0.00;;
54815;SDS011;40715;55.752;37.884;2022-07-23T03:08:22;0.00;;;0.00;;
54815;SDS011;40715;55.752;37.884;2022-07-23T03:10:49;0.00;;;0.00;;
54815;SDS011;40715;55.752;37.884;2022-07-23T03:13:16;0.00;;;0.00;;
54815;SDS011;40715;55.752;37.884;2022-07-23T03:15:43;0.00;;;0.00;;
54815;SDS011;40715;55.752;37.884;2022-07-23T03:18:10;0.00;;;0.00;;
54815;SDS011;40715;55.752;37.884;2022-07-23T03:20:37;0.00;;;0.00;;
54815;SDS011;40715;55.752;37.884;2022-07-23T03:23:05;0.00;;;0.00;;
54815;SDS011;40715;55.752;37.884;2022-07-23T03:25:32;0.00;;;0.00;;
54815;SDS011;40715;55.752;37.884;2022-07-23T03:27:59;0.00;;;0.00;;
54815;SDS011;40715;55.752;37.884;2022-07-23T03:30:26;0.00;;;0.00;;
54815;SDS011;40715;55.752;37.884;2022-07-23T03:32:53;0.00;;;0.00;;
54815;SDS011;40715;55.752;37.884;2022-07-23T03:35:20;0.00;;;0.00;;
54815;SDS011;40715;55.752;37.884;2022-07-23T03:37:47;0.00;;;0.00;;
54815;SDS011;40715;55.752;37.884;2022-07-23T03:40:14;0.00;;;0.00;;
54815;SDS011;40715;55.752;37.884;2022-07-23T03:42:41;0.00;;;0.00;;
54815;SDS011;40715;55.752;37.884;2022-07-23T03:45:08;0.00;;;0.00;;
54815;SDS011;40715;55.752;37.884;2022-07-23T03:47:36;0.00;;;0.00;;
54815;SDS011;40715;55.752;37.884;2022-07-23T03:50:03;0.00;;;0.00;;
54815;SDS011;40715;55.752;37.884;2022-07-23T03:52:31;0.00;;;0.00;;
54815;SDS011;40715;55.752;37.884;2022-07-23T03:54:58;0.00;;;0.00;;
54815;SDS011;40715;55.752;37.884;2022-07-23T03:57:25;0.00;;;0.00;;
54815;SDS011;40715;55.752;37.884;2022-07-23T03:59:52;0.00;;;0.00;;
54815;SDS011;40715;55.752;37.884;2022-07-23T04:02:19;0.00;;;0.00;;
54815;SDS011;40715;55.752;37.884;2022-07-23T04:04:46;0.00;;;0.00;;
54815;SDS011;40715;55.752;37.884;2022-07-23T04:07:14;0.00;;;0.00;;
54815;SDS011;40715;55.752;37.884;2022-07-23T04:09:41;0.00;;;0.00;;
54815;SDS011;40715;55.752;37.884;2022-07-23T04:12:11;0.10;;;0.10;;
54815;SDS011;40715;55.752;37.884;2022-07-23T04:14:38;0.20;;;0.20;;
54815;SDS011;40715;55.752;37.884;2022-07-23T04:17:05;0.30;;;0.30;;
54815;SDS011;40715;55.752;37.884;2022-07-23T04:19:33;0.40;;;0.40;;
54815;SDS011;40715;55.752;37.884;2022-07-23T04:22:06;0.40;;;0.40;;
54815;SDS011;40715;55.752;37.884;2022-07-23T04:24:34;0.40;;;0.40;;
54815;SDS011;40715;55.752;37.884;2022-07-23T04:27:01;0.50;;;0.50;;
54815;SDS011;40715;55.752;37.884;2022-07-23T04:29:28;0.50;;;0.50;;
54815;SDS011;40715;55.752;37.884;2022-07-23T04:31:55;0.50;;;0.50;;
54815;SDS011;40715;55.752;37.884;2022-07-23T04:34:22;0.60;;;0.60;;
54815;SDS011;40715;55.752;37.884;2022-07-23T04:36:49;0.70;;;0.70;;
54815;SDS011;40715;55.752;37.884;2022-07-23T04:39:16;0.70;;;0.70;;
54815;SDS011;40715;55.752;37.884;2022-07-23T04:41:44;0.70;;;0.70;;
54815;SDS011;40715;55.752;37.884;2022-07-23T04:44:12;0.70;;;0.70;;
54815;SDS011;40715;55.752;37.884;2022-07-23T04:46:39;0.90;;;0.90;;
54815;SDS011;40715;55.752;37.884;2022-07-23T04:49:06;0.90;;;0.90;;
54815;SDS011;40715;55.752;37.884;2022-07-23T04:51:34;1.00;;;1.00;;
54815;SDS011;40715;55.752;37.884;2022-07-23T04:54:04;1.10;;;1.10;;
54815;SDS011;40715;55.752;37.884;2022-07-23T04:56:31;1.20;;;1.20;;
54815;SDS011;40715;55.752;37.884;2022-07-23T04:58:58;1.30;;;1.30;;
54815;SDS011;40715;55.752;37.884;2022-07-23T05:01:26;1.48;;;1.48;;
54815;SDS011;40715;55.752;37.884;2022-07-23T05:03:53;1.55;;;1.55;;
54815;SDS011;40715;55.752;37.884;2022-07-23T05:06:20;1.70;;;1.70;;
54815;SDS011;40715;55.752;37.884;2022-07-23T05:08:47;1.80;;;1.80;;
54815;SDS011;40715;55.752;37.884;2022-07-23T05:11:13;1.80;;;1.80;;
54815;SDS011;40715;55.752;37.884;2022-07-23T05:13:40;1.77;;;1.77;;
54815;SDS011;40715;55.752;37.884;2022-07-23T05:16:07;2.72;;;2.63;;
54815;SDS011;40715;55.752;37.884;2022-07-23T05:18:34;2.15;;;2.10;;
54815;SDS011;40715;55.752;37.884;2022-07-23T05:21:01;2.40;;;2.30;;
54815;SDS011;40715;55.752;37.884;2022-07-23T05:23:28;2.30;;;2.20;;
54815;SDS011;40715;55.752;37.884;2022-07-23T05:25:55;2.40;;;2.30;;
54815;SDS011;40715;55.752;37.884;2022-07-23T05:28:22;2.70;;;2.60;;
54815;SDS011;40715;55.752;37.884;2022-07-23T05:30:49;2.72;;;2.63;;
54815;SDS011;40715;55.752;37.884;2022-07-23T05:33:18;3.10;;;3.00;;
54815;SDS011;40715;55.752;37.884;2022-07-23T05:35:46;3.65;;;3.55;;
54815;SDS011;40715;55.752;37.884;2022-07-23T05:38:13;3.42;;;3.33;;
54815;SDS011;40715;55.752;37.884;2022-07-23T05:40:40;3.60;;;3.50;;
54815;SDS011;40715;55.752;37.884;2022-07-23T05:43:07;3.47;;;3.38;;
54815;SDS011;40715;55.752;37.884;2022-07-23T05:45:34;4.50;;;4.30;;
54815;SDS011;40715;55.752;37.884;2022-07-23T05:48:01;3.65;;;3.55;;
54815;SDS011;40715;55.752;37.884;2022-07-23T05:50:28;4.20;;;4.00;;
54815;SDS011;40715;55.752;37.884;2022-07-23T05:52:55;4.10;;;4.00;;
54815;SDS011;40715;55.752;37.884;2022-07-23T05:55:22;4.50;;;4.30;;
54815;SDS011;40715;55.752;37.884;2022-07-23T05:57:48;5.00;;;4.80;;
54815;SDS011;40715;55.752;37.884;2022-07-23T06:00:15;4.60;;;4.40;;
54815;SDS011;40715;55.752;37.884;2022-07-23T06:02:43;4.43;;;4.22;;
54815;SDS011;40715;55.752;37.884;2022-07-23T06:05:10;5.10;;;4.90;;
54815;SDS011;40715;55.752;37.884;2022-07-23T06:07:36;5.03;;;4.82;;
54815;SDS011;40715;55.752;37.884;2022-07-23T06:10:04;5.43;;;5.22;;
54815;SDS011;40715;55.752;37.884;2022-07-23T06:12:31;5.97;;;5.78;;
54815;SDS011;40715;55.752;37.884;2022-07-23T06:14:59;6.15;;;5.95;;
54815;SDS011;40715;55.752;37.884;2022-07-23T06:17:26;6.65;;;6.35;;
54815;SDS011;40715;55.752;37.884;2022-07-23T06:19:56;6.65;;;6.35;;
54815;SDS011;40715;55.752;37.884;2022-07-23T06:22:41;6.72;;;6.43;;
54815;SDS011;40715;55.752;37.884;2022-07-23T06:25:08;7.20;;;6.90;;
54815;SDS011;40715;55.752;37.884;2022-07-23T06:27:37;7.72;;;7.43;;
54815;SDS011;40715;55.752;37.884;2022-07-23T06:30:05;7.32;;;7.03;;
54815;SDS011;40715;55.752;37.884;2022-07-23T06:32:34;7.93;;;7.63;;
54815;SDS011;40715;55.752;37.884;2022-07-23T06:35:01;8.60;;;8.20;;
54815;SDS011;40715;55.752;37.884;2022-07-23T06:37:29;9.45;;;9.05;;
54815;SDS011;40715;55.752;37.884;2022-07-23T06:39:56;8.77;;;8.38;;
54815;SDS011;40715;55.752;37.884;2022-07-23T06:42:23;10.10;;;9.70;;
54815;SDS011;40715;55.752;37.884;2022-07-23T06:44:50;10.63;;;10.13;;
54815;SDS011;40715;55.752;37.884;2022-07-23T06:47:17;11.23;;;10.73;;
54815;SDS011;40715;55.752;37.884;2022-07-23T06:49:44;12.45;;;11.85;;
54815;SDS011;40715;55.752;37.884;2022-07-23T06:52:11;12.05;;;11.55;;
54815;SDS011;40715;55.752;37.884;2022-07-23T06:54:37;12.30;;;11.75;;
54815;SDS011;40715;55.752;37.884;2022-07-23T06:57:04;13.95;;;13.35;;
54815;SDS011;40715;55.752;37.884;2022-07-23T06:59:31;14.73;;;14.10;;
54815;SDS011;40715;55.752;37.884;2022-07-23T07:01:59;15.48;;;14.77;;
54815;SDS011;40715;55.752;37.884;2022-07-23T07:04:26;22.30;;;21.30;;
54815;SDS011;40715;55.752;37.884;2022-07-23T07:06:53;18.27;;;17.48;;
54815;SDS011;40715;55.752;37.884;2022-07-23T07:09:20;19.70;;;18.80;;
54815;SDS011;40715;55.752;37.884;2022-07-23T07:11:47;23.25;;;22.25;;
54815;SDS011;40715;55.752;37.884;2022-07-23T07:14:14;23.85;;;22.83;;
54815;SDS011;40715;55.752;37.884;2022-07-23T07:16:41;24.30;;;23.23;;
54815;SDS011;40715;55.752;37.884;2022-07-23T07:19:08;28.30;;;27.10;;
54815;SDS011;40715;55.752;37.884;2022-07-23T07:21:36;31.98;;;30.58;;
54815;SDS011;40715;55.752;37.884;2022-07-23T07:24:03;36.25;;;34.65;;
54815;SDS011;40715;55.752;37.884;2022-07-23T07:26:30;40.35;;;38.63;;
54815;SDS011;40715;55.752;37.884;2022-07-23T07:28:57;44.45;;;42.55;;
54815;SDS011;40715;55.752;37.884;2022-07-23T07:31:24;46.55;;;44.55;;
54815;SDS011;40715;55.752;37.884;2022-07-23T07:33:51;52.20;;;49.95;;
54815;SDS011;40715;55.752;37.884;2022-07-23T07:36:19;50.08;;;47.92;;
54815;SDS011;40715;55.752;37.884;2022-07-23T07:38:46;54.72;;;52.35;;
54815;SDS011;40715;55.752;37.884;2022-07-23T07:41:12;54.35;;;52.03;;
54815;SDS011;40715;55.752;37.884;2022-07-23T07:43:39;53.53;;;51.22;;
54815;SDS011;40715;55.752;37.884;2022-07-23T07:46:06;51.22;;;49.03;;
54815;SDS011;40715;55.752;37.884;2022-07-23T07:48:37;52.65;;;50.35;;
54815;SDS011;40715;55.752;37.884;2022-07-23T07:51:04;54.42;;;52.08;;
54815;SDS011;40715;55.752;37.884;2022-07-23T07:53:34;52.75;;;50.45;;
54815;SDS011;40715;55.752;37.884;2022-07-23T07:56:01;52.20;;;49.95;;
54815;SDS011;40715;55.752;37.884;2022-07-23T07:58:28;53.30;;;51.00;;
54815;SDS011;40715;55.752;37.884;2022-07-23T08:00:55;58.95;;;56.42;;
54815;SDS011;40715;55.752;37.884;2022-07-23T08:03:22;60.17;;;57.58;;
54815;SDS011;40715;55.752;37.884;2022-07-23T08:05:49;56.05;;;53.65;;
54815;SDS011;40715;55.752;37.884;2022-07-23T08:08:16;39.97;;;38.28;;
54815;SDS011;40715;55.752;37.884;2022-07-23T08:10:44;30.50;;;29.20;;
54815;SDS011;40715;55.752;37.884;2022-07-23T08:13:18;18.40;;;17.60;;
54815;SDS011;40715;55.752;37.884;2022-07-23T08:15:45;16.17;;;15.48;;
54815;SDS011;40715;55.752;37.884;2022-07-23T08:18:12;16.48;;;15.77;;
54815;SDS011;40715;55.752;37.884;2022-07-23T08:20:39;21.52;;;20.63;;
54815;SDS011;40715;55.752;37.884;2022-07-23T08:23:15;29.95;;;28.65;;
54815;SDS011;40715;55.752;37.884;2022-07-23T08:25:46;37.92;;;36.33;;
54815;SDS011;40715;55.752;37.884;2022-07-23T08:28:13;36.55;;;34.95;;
54815;SDS011;40715;55.752;37.884;2022-07-23T08:30:42;23.70;;;22.70;;
54815;SDS011;40715;55.752;37.884;2022-07-23T08:33:11;12.30;;;11.80;;
54815;SDS011;40715;55.752;37.884;2022-07-23T08:35:45;7.80;;;7.50;;
54815;SDS011;40715;55.752;37.884;2022-07-23T08:38:15;4.32;;;4.13;;
54815;SDS011;40715;55.752;37.884;2022-07-23T08:40:44;3.17;;;3.08;;
54815;SDS011;40715;55.752;37.884;2022-07-23T08:43:19;2.80;;;2.70;;
54815;SDS011;40715;55.752;37.884;2022-07-23T08:45:49;3.03;;;2.92;;
54815;SDS011;40715;55.752;37.884;2022-07-23T08:48:19;4.50;;;4.30;;
54815;SDS011;40715;55.752;37.884;2022-07-23T08:50:57;9.57;;;9.18;;
54815;SDS011;40715;55.752;37.884;2022-07-23T08:53:56;14.77;;;14.07;;
54815;SDS011;40715;55.752;37.884;2022-07-23T08:56:24;21.95;;;20.95;;
54815;SDS011;40715;55.752;37.884;2022-07-23T08:58:54;26.92;;;25.73;;
54815;SDS011;40715;55.752;37.884;2022-07-23T09:01:21;35.65;;;34.13;;
54815;SDS011;40715;55.752;37.884;2022-07-23T09:03:48;40.67;;;38.90;;
54815;SDS011;40715;55.752;37.884;2022-07-23T09:06:15;47.20;;;45.20;;
54815;SDS011;40715;55.752;37.884;2022-07-23T09:08:43;55.05;;;52.65;;
54815;SDS011;40715;55.752;37.884;2022-07-23T09:11:13;60.80;;;58.20;;
54815;SDS011;40715;55.752;37.884;2022-07-23T09:16:24;67.95;;;65.05;;
54815;SDS011;40715;55.752;37.884;2022-07-23T09:18:54;72.43;;;69.38;;
54815;SDS011;40715;55.752;37.884;2022-07-23T09:21:30;68.78;;;65.88;;
54815;SDS011;40715;55.752;37.884;2022-07-23T09:24:05;63.50;;;60.80;;
54815;SDS011;40715;55.752;37.884;2022-07-23T09:26:35;41.70;;;39.90;;
54815;SDS011;40715;55.752;37.884;2022-07-23T09:29:20;36.38;;;34.78;;
54815;SDS011;40715;55.752;37.884;2022-07-23T09:31:54;43.75;;;41.85;;
54815;SDS011;40715;55.752;37.884;2022-07-23T09:34:24;50.67;;;48.47;;
54815;SDS011;40715;55.752;37.884;2022-07-23T09:37:08;54.47;;;52.13;;
54815;SDS011;40715;55.752;37.884;2022-07-23T09:39:42;44.80;;;42.90;;
54815;SDS011;40715;55.752;37.884;2022-07-23T09:44:47;18.95;;;18.13;;
54815;SDS011;40715;55.752;37.884;2022-07-23T09:47:16;8.55;;;8.15;;
54815;SDS011;40715;55.752;37.884;2022-07-23T09:50:00;4.85;;;4.65;;
54815;SDS011;40715;55.752;37.884;2022-07-23T09:52:33;3.90;;;3.80;;
54815;SDS011;40715;55.752;37.884;2022-07-23T09:55:04;3.50;;;3.40;;
54815;SDS011;40715;55.752;37.884;2022-07-23T09:57:32;3.90;;;3.80;;
54815;SDS011;40715;55.752;37.884;2022-07-23T10:00:06;5.82;;;5.63;;
54815;SDS011;40715;55.752;37.884;2022-07-23T10:02:36;4.43;;;4.22;;
54815;SDS011;40715;55.752;37.884;2022-07-23T10:05:03;4.40;;;4.20;;
54815;SDS011;40715;55.752;37.884;2022-07-23T10:07:32;3.20;;;3.10;;
54815;SDS011;40715;55.752;37.884;2022-07-23T10:10:02;2.40;;;2.30;;
54815;SDS011;40715;55.752;37.884;2022-07-23T10:12:30;1.70;;;1.70;;
54815;SDS011;40715;55.752;37.884;2022-07-23T10:15:16;1.58;;;1.58;;
54815;SDS011;40715;55.752;37.884;2022-07-23T10:17:43;0.90;;;0.90;;
54815;SDS011;40715;55.752;37.884;2022-07-23T10:20:10;0.60;;;0.60;;
54815;SDS011;40715;55.752;37.884;2022-07-23T10:25:59;0.43;;;0.43;;
54815;SDS011;40715;55.752;37.884;2022-07-23T10:37:39;0.20;;;0.20;;
54815;SDS011;40715;55.752;37.884;2022-07-23T10:42:48;0.20;;;0.20;;
54815;SDS011;40715;55.752;37.884;2022-07-23T10:48:15;0.10;;;0.10;;
54815;SDS011;40715;55.752;37.884;2022-07-23T10:51:08;0.10;;;0.10;;
54815;SDS011;40715;55.752;37.884;2022-07-23T10:58:47;0.08;;;0.08;;
54815;SDS011;40715;55.752;37.884;2022-07-23T11:01:35;0.10;;;0.10;;
54815;SDS011;40715;55.752;37.884;2022-07-23T11:04:04;0.10;;;0.10;;
54815;SDS011;40715;55.752;37.884;2022-07-23T11:07:08;0.10;;;0.10;;
54815;SDS011;40715;55.752;37.884;2022-07-23T11:09:40;0.00;;;0.00;;
54815;SDS011;40715;55.752;37.884;2022-07-23T11:15:13;0.00;;;0.00;;
54815;SDS011;40715;55.752;37.884;2022-07-23T11:25:09;0.10;;;0.10;;
54815;SDS011;40715;55.752;37.884;2022-07-23T11:27:38;0.10;;;0.10;;
54815;SDS011;40715;55.752;37.884;2022-07-23T11:30:06;0.00;;;0.00;;
54815;SDS011;40715;55.752;37.884;2022-07-23T11:32:40;0.00;;;0.00;;
54815;SDS011;40715;55.752;37.884;2022-07-23T11:35:19;0.10;;;0.10;;
54815;SDS011;40715;55.752;37.884;2022-07-23T11:37:54;0.00;;;0.00;;
54815;SDS011;40715;55.752;37.884;2022-07-23T11:45:29;0.10;;;0.10;;
54815;SDS011;40715;55.752;37.884;2022-07-23T11:48:02;0.08;;;0.08;;
54815;SDS011;40715;55.752;37.884;2022-07-23T11:50:30;0.00;;;0.00;;
54815;SDS011;40715;55.752;37.884;2022-07-23T11:52:58;0.00;;;0.00;;
54815;SDS011;40715;55.752;37.884;2022-07-23T11:55:25;0.00;;;0.00;;
54815;SDS011;40715;55.752;37.884;2022-07-23T11:57:54;0.00;;;0.00;;
54815;SDS011;40715;55.752;37.884;2022-07-23T12:00:22;0.00;;;0.00;;
54815;SDS011;40715;55.752;37.884;2022-07-23T12:02:53;0.00;;;0.00;;
54815;SDS011;40715;55.752;37.884;2022-07-23T12:05:23;0.10;;;0.10;;
54815;SDS011;40715;55.752;37.884;2022-07-23T12:07:53;0.00;;;0.00;;
54815;SDS011;40715;55.752;37.884;2022-07-23T12:10:25;0.00;;;0.00;;
54815;SDS011;40715;55.752;37.884;2022-07-23T12:12:55;0.05;;;0.05;;
54815;SDS011;40715;55.752;37.884;2022-07-23T12:15:26;0.00;;;0.00;;
54815;SDS011;40715;55.752;37.884;2022-07-23T12:17:57;0.00;;;0.00;;
54815;SDS011;40715;55.752;37.884;2022-07-23T12:20:26;0.00;;;0.00;;
54815;SDS011;40715;55.752;37.884;2022-07-23T12:22:56;0.00;;;0.00;;
54815;SDS011;40715;55.752;37.884;2022-07-23T12:25:26;0.00;;;0.00;;
54815;SDS011;40715;55.752;37.884;2022-07-23T12:27:59;0.00;;;0.00;;
54815;SDS011;40715;55.752;37.884;2022-07-23T12:30:28;0.00;;;0.00;;
54815;SDS011;40715;55.752;37.884;2022-07-23T12:33:00;0.00;;;0.00;;
54815;SDS011;40715;55.752;37.884;2022-07-23T12:35:35;0.00;;;0.00;;
54815;SDS011;40715;55.752;37.884;2022-07-23T12:43:09;0.00;;;0.00;;
54815;SDS011;40715;55.752;37.884;2022-07-23T12:46:27;0.00;;;0.00;;
54815;SDS011;40715;55.752;37.884;2022-07-23T12:51:17;0.00;;;0.00;;
54815;SDS011;40715;55.752;37.884;2022-07-23T12:53:57;0.00;;;0.00;;
54815;SDS011;40715;55.752;37.884;2022-07-23T12:56:43;0.00;;;0.00;;
54815;SDS011;40715;55.752;37.884;2022-07-23T12:59:14;0.00;;;0.00;;
54815;SDS011;40715;55.752;37.884;2022-07-23T13:01:44;0.00;;;0.00;;
54815;SDS011;40715;55.752;37.884;2022-07-23T13:04:20;0.00;;;0.00;;
54815;SDS011;40715;55.752;37.884;2022-07-23T13:06:55;0.00;;;0.00;;
54815;SDS011;40715;55.752;37.884;2022-07-23T13:09:25;0.00;;;0.00;;
54815;SDS011;40715;55.752;37.884;2022-07-23T13:11:58;0.03;;;0.03;;
54815;SDS011;40715;55.752;37.884;2022-07-23T13:14:26;0.00;;;0.00;;
54815;SDS011;40715;55.752;37.884;2022-07-23T13:16:54;0.00;;;0.00;;
54815;SDS011;40715;55.752;37.884;2022-07-23T13:19:23;0.08;;;0.08;;
54815;SDS011;40715;55.752;37.884;2022-07-23T13:21:50;0.00;;;0.00;;
54815;SDS011;40715;55.752;37.884;2022-07-23T13:24:17;0.00;;;0.00;;
54815;SDS011;40715;55.752;37.884;2022-07-23T13:26:44;0.00;;;0.00;;
54815;SDS011;40715;55.752;37.884;2022-07-23T13:29:13;0.00;;;0.00;;
54815;SDS011;40715;55.752;37.884;2022-07-23T13:31:42;0.00;;;0.00;;
54815;SDS011;40715;55.752;37.884;2022-07-23T13:34:10;0.00;;;0.00;;
54815;SDS011;40715;55.752;37.884;2022-07-23T13:36:37;0.00;;;0.00;;
54815;SDS011;40715;55.752;37.884;2022-07-23T13:39:04;0.00;;;0.00;;
54815;SDS011;40715;55.752;37.884;2022-07-23T13:41:32;0.00;;;0.00;;
54815;SDS011;40715;55.752;37.884;2022-07-23T13:43:59;0.00;;;0.00;;
54815;SDS011;40715;55.752;37.884;2022-07-23T13:46:26;0.00;;;0.00;;
54815;SDS011;40715;55.752;37.884;2022-07-23T13:48:53;0.00;;;0.00;;
54815;SDS011;40715;55.752;37.884;2022-07-23T13:51:20;0.00;;;0.00;;
54815;SDS011;40715;55.752;37.884;2022-07-23T13:53:47;0.00;;;0.00;;
54815;SDS011;40715;55.752;37.884;2022-07-23T13:56:14;0.00;;;0.00;;
54815;SDS011;40715;55.752;37.884;2022-07-23T13:58:41;0.00;;;0.00;;
54815;SDS011;40715;55.752;37.884;2022-07-23T14:01:08;0.00;;;0.00;;
54815;SDS011;40715;55.752;37.884;2022-07-23T14:03:35;0.00;;;0.00;;
54815;SDS011;40715;55.752;37.884;2022-07-23T14:06:03;0.00;;;0.00;;
54815;SDS011;40715;55.752;37.884;2022-07-23T14:08:32;0.00;;;0.00;;
54815;SDS011;40715;55.752;37.884;2022-07-23T14:10:59;0.00;;;0.00;;
54815;SDS011;40715;55.752;37.884;2022-07-23T14:13:26;0.00;;;0.00;;
54815;SDS011;40715;55.752;37.884;2022-07-23T14:15:53;0.00;;;0.00;;
54815;SDS011;40715;55.752;37.884;2022-07-23T14:18:20;0.00;;;0.00;;
54815;SDS011;40715;55.752;37.884;2022-07-23T14:20:47;0.00;;;0.00;;
54815;SDS011;40715;55.752;37.884;2022-07-23T14:23:14;0.00;;;0.00;;
54815;SDS011;40715;55.752;37.884;2022-07-23T14:25:41;0.00;;;0.00;;
54815;SDS011;40715;55.752;37.884;2022-07-23T14:28:08;0.00;;;0.00;;
54815;SDS011;40715;55.752;37.884;2022-07-23T14:30:35;0.00;;;0.00;;
54815;SDS011;40715;55.752;37.884;2022-07-23T14:33:02;0.00;;;0.00;;
54815;SDS011;40715;55.752;37.884;2022-07-23T14:35:29;0.00;;;0.00;;
54815;SDS011;40715;55.752;37.884;2022-07-23T14:37:56;0.00;;;0.00;;
54815;SDS011;40715;55.752;37.884;2022-07-23T14:40:24;0.00;;;0.00;;
54815;SDS011;40715;55.752;37.884;2022-07-23T14:42:51;0.00;;;0.00;;
54815;SDS011;40715;55.752;37.884;2022-07-23T14:45:18;0.00;;;0.00;;
54815;SDS011;40715;55.752;37.884;2022-07-23T14:47:46;0.00;;;0.00;;
54815;SDS011;40715;55.752;37.884;2022-07-23T14:50:14;0.00;;;0.00;;
54815;SDS011;40715;55.752;37.884;2022-07-23T14:52:41;0.00;;;0.00;;
54815;SDS011;40715;55.752;37.884;2022-07-23T14:55:08;0.00;;;0.00;;
54815;SDS011;40715;55.752;37.884;2022-07-23T14:57:35;0.00;;;0.00;;
54815;SDS011;40715;55.752;37.884;2022-07-23T15:00:03;0.00;;;0.00;;
54815;SDS011;40715;55.752;37.884;2022-07-23T15:02:31;0.00;;;0.00;;
54815;SDS011;40715;55.752;37.884;2022-07-23T15:04:58;0.00;;;0.00;;
54815;SDS011;40715;55.752;37.884;2022-07-23T15:07:29;0.00;;;0.00;;
54815;SDS011;40715;55.752;37.884;2022-07-23T15:09:56;0.00;;;0.00;;
54815;SDS011;40715;55.752;37.884;2022-07-23T15:12:24;0.00;;;0.00;;
54815;SDS011;40715;55.752;37.884;2022-07-23T15:14:51;0.00;;;0.00;;
54815;SDS011;40715;55.752;37.884;2022-07-23T15:17:18;0.00;;;0.00;;
54815;SDS011;40715;55.752;37.884;2022-07-23T15:19:46;0.00;;;0.00;;
54815;SDS011;40715;55.752;37.884;2022-07-23T15:22:13;0.00;;;0.00;;
54815;SDS011;40715;55.752;37.884;2022-07-23T15:24:40;0.00;;;0.00;;
54815;SDS011;40715;55.752;37.884;2022-07-23T15:27:08;0.00;;;0.00;;
54815;SDS011;40715;55.752;37.884;2022-07-23T15:29:35;0.00;;;0.00;;
54815;SDS011;40715;55.752;37.884;2022-07-23T15:32:03;0.00;;;0.00;;